Hlavní strana
METAR-TAF:

METAR-TAF

Letiště :

Orsk, Rusko

zeměpisná šířka: 51-04-18N, zeměpisná délka: 058-35-48E, výška: 277 m

Aktuální stav počasí

Zpráva byla vytvořena před 57 minutami, v 00:00 UTC
Západoseverozápadní vítr 6 kt
Teplota 6°C
Vlhkost vzduchu 75%
Tlak 1015 hPa
Viditelnost 10 km a více
Žádná oblačnost pod 1500 m, nevyskytují se cumulonimby.

METAR: UWOR 090000Z 29003MPS CAVOK 06/02 Q1015 R25/CLRD65 NOSIG RMK QFE737/0983

Čas: 05:57 (00:57 UTC)

Předpověď počasí

Zpráva byla vytvořena před 2 hodinami a 13 minutami, v 22:44 UTC
Předpověď platná od 09 v 00 UTC do 09 v 09 UTC
Západojihozápadní vítr 6 kt s nárazy do 16 kt
Viditelnost 10 km a více
Oblačno až skoro zataženo ve výšce 2000 ft, Cumulonimbus.
Dočasný
od 09 v 00 UTC do 09 v 09 UTC
Západní vítr 6 kt s nárazy do 16 kt

TAF: UWOR 082244Z 0900/0909 24003G08MPS 9999 BKN020CB TX20/0909Z TN05/0901Z TEMPO 0900/0909 28003G08MPS

Stav a předpovědi počasí z více než 4 000 letišť (zprávy METAR a TAF).

Červené a žluté tečky na mapě představují dostupné meteorologické stanice.

Když kurzor umístíte na tečku, zobrazí se název stanice.

Pak kliknutím zobrazíte stav a předpověď počasí.

Chcete-li změnit mapu, kliknutím na zelené tlačítko se znaménkem +mapu přiblížíte, kliknutím na zelené tlačítko se znaménkem – mapu oddálíte a kliknutím na zelené šipky přejdete na sousední mapy.


METAR-TAF: